Time;durP1;ratioP1;P1;durP2;ratioP2;P2;SDS_P1;SDS_P2;PMS_P1;PMS_P2;Temp;Humidity;BMP_temperature;BMP_pressure;BME280_temperature;BME280_humidity;BME280_pressure;Samples;Min_cycle;Max_cycle;Signal;HPM_P1;HPM_P2
2023/01/22 00:00:28;;;;;;;24.02;16.70;;;0.70;99.90;;;;;;5028792;28;20314;-64
2023/01/22 00:02:54;;;;;;;20.90;14.85;;;0.70;99.90;;;;;;4994946;28;20090;-63
2023/01/22 00:05:20;;;;;;;26.98;19.05;;;0.60;99.90;;;;;;5028724;28;20059;-63
2023/01/22 00:07:46;;;;;;;22.95;17.83;;;0.60;99.90;;;;;;5028100;28;20063;-63
2023/01/22 00:10:12;;;;;;;26.08;16.52;;;0.50;99.90;;;;;;5011187;28;20037;-62
2023/01/22 00:12:38;;;;;;;25.58;19.02;;;0.50;99.90;;;;;;5029797;28;20264;-62
2023/01/22 00:15:04;;;;;;;24.65;15.95;;;0.50;99.90;;;;;;5010567;28;20045;-63
2023/01/22 00:17:30;;;;;;;25.90;16.48;;;0.40;99.90;;;;;;5028460;28;20049;-63
2023/01/22 00:19:55;;;;;;;24.45;17.42;;;0.40;99.90;;;;;;5028129;28;20890;-62
2023/01/22 00:22:21;;;;;;;25.65;17.70;;;0.30;99.90;;;;;;5010399;28;20420;-63
2023/01/22 00:24:47;;;;;;;27.20;19.20;;;0.30;99.90;;;;;;5028870;28;20037;-62
2023/01/22 00:27:12;;;;;;;28.73;20.33;;;0.20;99.90;;;;;;5010479;28;20564;-63
2023/01/22 00:29:39;;;;;;;26.75;19.52;;;0.20;99.90;;;;;;5010362;28;20049;-63
2023/01/22 00:32:05;;;;;;;32.90;21.92;;;0.10;99.90;;;;;;5028132;28;20538;-63
2023/01/22 00:34:31;;;;;;;32.40;22.52;;;0.00;99.90;;;;;;4994095;28;20049;-63
2023/01/22 00:36:57;;;;;;;32.25;22.15;;;0.00;99.90;;;;;;5027520;28;20551;-63
2023/01/22 00:39:22;;;;;;;28.60;21.50;;;-0.10;99.90;;;;;;5028028;28;20057;-63
2023/01/22 00:41:48;;;;;;;30.00;21.85;;;-0.10;99.90;;;;;;4994396;28;20491;-63
2023/01/22 00:44:14;;;;;;;28.98;20.70;;;-0.20;99.90;;;;;;5027884;28;20058;-64
2023/01/22 00:46:40;;;;;;;27.75;21.95;;;-0.20;99.90;;;;;;5011284;28;20055;-63
2023/01/22 00:49:06;;;;;;;32.63;21.42;;;-0.20;99.90;;;;;;5001092;28;20041;-63
2023/01/22 00:51:33;;;;;;;35.40;23.42;;;-0.20;99.90;;;;;;5014570;28;20055;-64
2023/01/22 00:53:59;;;;;;;35.25;22.80;;;-0.20;99.90;;;;;;5014651;28;20044;-63
2023/01/22 00:56:24;;;;;;;28.80;20.58;;;-0.30;99.90;;;;;;4998729;28;20037;-62
2023/01/22 00:58:50;;;;;;;34.30;22.55;;;-0.30;99.90;;;;;;5014707;28;20094;-63
2023/01/22 01:01:16;;;;;;;35.25;23.83;;;-0.20;99.90;;;;;;5014678;28;20048;-63
2023/01/22 01:03:42;;;;;;;32.45;22.88;;;-0.20;99.90;;;;;;4997884;28;20464;-64
2023/01/22 01:06:15;;;;;;;36.33;23.60;;;-0.20;99.90;;;;;;4995551;28;20041;-64
2023/01/22 01:08:42;;;;;;;37.28;23.88;;;-0.20;99.90;;;;;;5014531;28;20051;-64
2023/01/22 01:11:22;;;;;;;34.90;22.58;;;-0.10;99.90;;;;;;4997288;28;20482;-65
2023/01/22 01:13:49;;;;;;;33.35;22.15;;;0.00;99.90;;;;;;5014838;28;20132;-63
2023/01/22 01:16:19;;;;;;;30.77;20.52;;;0.10;99.90;;;;;;5013530;28;20037;-64
2023/01/22 01:18:45;;;;;;;33.60;21.48;;;0.20;99.90;;;;;;5014583;28;20124;-64
2023/01/22 01:21:11;;;;;;;31.60;19.73;;;0.30;99.90;;;;;;5013480;28;20040;-64
2023/01/22 01:23:38;;;;;;;32.38;18.67;;;0.40;99.90;;;;;;5012386;28;20129;-63
2023/01/22 01:26:09;;;;;;;25.67;16.00;;;0.50;99.90;;;;;;5032202;28;20513;-64
2023/01/22 01:28:36;;;;;;;26.90;17.27;;;0.70;99.90;;;;;;5013948;28;20048;-63
2023/01/22 01:31:04;;;;;;;25.08;15.80;;;0.70;99.90;;;;;;5012875;28;20951;-64
2023/01/22 01:33:30;;;;;;;26.85;16.00;;;0.90;99.90;;;;;;5012797;28;20037;-63
2023/01/22 01:36:08;;;;;;;20.45;12.15;;;0.90;99.90;;;;;;5014142;28;20044;-63
2023/01/22 01:38:35;;;;;;;21.52;14.23;;;0.90;99.90;;;;;;5013727;28;20135;-64
2023/01/22 01:41:01;;;;;;;18.48;12.88;;;1.00;99.90;;;;;;5012853;28;20048;-63
2023/01/22 01:43:27;;;;;;;21.98;11.85;;;1.00;99.90;;;;;;5002811;28;20041;-64
2023/01/22 01:45:54;;;;;;;16.75;11.27;;;1.10;99.90;;;;;;5013401;28;20206;-64
2023/01/22 01:48:36;;;;;;;18.23;11.80;;;1.20;99.90;;;;;;5013736;28;20048;-64
2023/01/22 01:51:17;;;;;;;15.45;8.98;;;1.20;99.90;;;;;;5014078;28;20250;-64
2023/01/22 01:53:47;;;;;;;15.25;8.57;;;1.30;99.90;;;;;;5032745;28;20109;-65
2023/01/22 01:56:41;;;;;;;10.07;6.40;;;1.30;99.90;;;;;;5033299;28;20029;-64
2023/01/22 01:59:12;;;;;;;11.48;6.90;;;1.40;99.90;;;;;;5001901;28;20615;-64
2023/01/22 02:01:38;;;;;;;9.10;6.22;;;1.40;99.90;;;;;;5013474;28;20415;-64
2023/01/22 02:04:04;;;;;;;11.05;6.97;;;1.50;99.90;;;;;;5032772;28;20052;-64
2023/01/22 02:06:29;;;;;;;11.73;6.63;;;1.50;99.90;;;;;;5030921;28;20054;-65
2023/01/22 02:08:56;;;;;;;9.20;6.55;;;1.50;99.90;;;;;;5013972;28;20060;-64
2023/01/22 02:11:22;;;;;;;9.75;6.45;;;1.40;91.80;;;;;;4989437;28;20621;-64
2023/01/22 02:13:53;;;;;;;10.93;6.10;;;1.30;99.90;;;;;;4997348;28;20303;-64
2023/01/22 02:16:18;;;;;;;9.35;6.00;;;1.40;88.90;;;;;;5013901;28;20039;-64
2023/01/22 02:18:45;;;;;;;10.65;6.03;;;1.40;78.50;;;;;;5011784;28;20434;-64
2023/01/22 02:21:26;;;;;;;7.60;4.90;;;1.40;57.00;;;;;;5013255;28;20223;-64
2023/01/22 02:23:52;;;;;;;7.40;5.18;;;1.40;1.00;;;;;;5012642;28;20168;-64
2023/01/22 02:26:17;;;;;;;8.98;5.85;;;1.40;17.20;;;;;;5010927;28;20731;-63
2023/01/22 02:28:43;;;;;;;11.60;6.05;;;1.50;51.30;;;;;;5031541;28;20045;-62
2023/01/22 02:31:09;;;;;;;10.02;6.45;;;1.40;30.80;;;;;;4997577;28;20120;-64
2023/01/22 02:33:34;;;;;;;9.88;6.45;;;1.40;60.40;;;;;;5032532;28;20044;-63
2023/01/22 02:36:00;;;;;;;7.90;5.50;;;1.40;45.90;;;;;;5033617;28;20036;-63
2023/01/22 02:38:26;;;;;;;10.82;5.88;;;1.50;48.40;;;;;;5015400;28;20053;-63
2023/01/22 02:40:51;;;;;;;6.97;5.45;;;1.40;60.10;;;;;;5032648;28;20118;-62
2023/01/22 02:43:17;;;;;;;10.30;6.18;;;1.40;40.50;;;;;;5005738;28;20540;-63
2023/01/22 02:45:43;;;;;;;10.07;5.95;;;1.40;39.30;;;;;;5013308;28;20511;-62
2023/01/22 02:48:09;;;;;;;8.48;5.82;;;1.50;33.70;;;;;;4999103;28;20045;-62
2023/01/22 02:50:35;;;;;;;8.55;5.38;;;1.40;66.80;;;;;;5015871;28;20475;-63
2023/01/22 02:53:00;;;;;;;10.35;5.70;;;1.40;51.10;;;;;;5033410;28;20033;-62
2023/01/22 02:55:26;;;;;;;6.90;5.38;;;1.40;16.80;;;;;;5031987;28;20037;-63
2023/01/22 02:57:52;;;;;;;11.88;5.35;;;1.40;2.10;;;;;;5032561;28;20079;-63
2023/01/22 03:00:18;;;;;;;7.85;3.70;;;1.40;13.60;;;;;;4998535;28;20040;-63
2023/01/22 03:02:43;;;;;;;7.43;3.78;;;1.40;1.00;;;;;;5016099;28;20206;-63
2023/01/22 03:05:09;;;;;;;6.82;4.38;;;1.40;1.00;;;;;;4998684;28;20033;-63
2023/01/22 03:07:41;;;;;;;4.65;3.10;;;1.40;1.00;;;;;;4998430;28;20049;-63
2023/01/22 03:10:17;;;;;;;5.55;3.30;;;1.40;1.00;;;;;;4996976;28;20036;-63
2023/01/22 03:21:16;;;;;;;7.15;4.30;;;1.40;1.00;;;;;;5032345;28;20079;-63
2023/01/22 03:23:48;;;;;;;7.75;3.50;;;1.40;1.00;;;;;;5032679;28;20534;-63
2023/01/22 03:26:14;;;;;;;10.20;4.18;;;1.40;1.00;;;;;;5032148;28;20047;-63
2023/01/22 03:28:40;;;;;;;10.82;3.65;;;1.30;1.00;;;;;;5031965;28;20099;-63
2023/01/22 03:31:06;;;;;;;11.00;4.72;;;1.40;1.00;;;;;;5015364;28;20083;-63
2023/01/22 03:33:33;;;;;;;12.85;4.97;;;1.40;1.00;;;;;;5015291;28;20045;-64
2023/01/22 03:36:04;;;;;;;6.63;4.13;;;1.40;1.00;;;;;;4987449;28;20241;-63
2023/01/22 03:38:30;;;;;;;6.18;3.72;;;1.40;1.00;;;;;;5032065;28;20041;-63
2023/01/22 03:41:06;;;;;;;8.95;4.70;;;1.40;1.00;;;;;;5014834;28;20041;-62
2023/01/22 03:43:33;;;;;;;10.25;4.70;;;1.50;1.00;;;;;;5032812;28;20040;-62
2023/01/22 03:46:01;;;;;;;10.10;4.80;;;1.50;1.00;;;;;;5014410;28;20095;-62
2023/01/22 03:48:27;;;;;;;8.23;4.90;;;1.50;1.00;;;;;;5030095;28;20052;-62
2023/01/22 03:50:52;;;;;;;5.50;3.97;;;1.50;1.00;;;;;;4999612;28;20088;-63
2023/01/22 03:53:18;;;;;;;9.15;4.60;;;1.50;1.00;;;;;;5014507;28;20271;-63
2023/01/22 03:55:44;;;;;;;11.02;5.53;;;1.50;1.00;;;;;;5033654;28;20102;-63
2023/01/22 03:58:09;;;;;;;10.23;4.90;;;1.50;1.00;;;;;;5031911;28;20057;-62
2023/01/22 04:00:35;;;;;;;8.02;4.15;;;1.50;1.00;;;;;;5011715;28;20033;-63
2023/01/22 04:03:01;;;;;;;8.30;3.92;;;1.50;1.00;;;;;;5011349;28;20091;-64
2023/01/22 04:05:26;;;;;;;5.80;3.22;;;1.50;1.00;;;;;;4993763;28;20036;-63
2023/01/22 04:07:52;;;;;;;5.65;2.47;;;1.60;1.00;;;;;;5030288;28;20566;-62
2023/01/22 04:10:18;;;;;;;6.65;2.35;;;1.60;1.00;;;;;;5012187;28;20264;-63
2023/01/22 04:12:43;;;;;;;8.38;3.40;;;1.60;99.90;;;;;;4994386;28;20040;-63
2023/01/22 04:15:10;;;;;;;7.38;4.03;;;1.50;99.90;;;;;;5011248;28;20036;-65
2023/01/22 04:17:35;;;;;;;6.80;3.15;;;1.60;99.90;;;;;;4994033;28;20280;-64
2023/01/22 04:20:01;;;;;;;5.43;3.22;;;1.60;99.90;;;;;;5011581;28;20420;-64
2023/01/22 04:22:27;;;;;;;5.97;3.15;;;1.50;99.90;;;;;;5010955;28;21598;-64
2023/01/22 04:24:53;;;;;;;7.70;3.55;;;1.50;99.90;;;;;;5007894;28;20059;-62
2023/01/22 04:27:18;;;;;;;8.27;2.13;;;1.50;99.90;;;;;;5010161;28;20620;-63
2023/01/22 04:29:44;;;;;;;6.38;2.20;;;1.50;99.90;;;;;;5011017;28;20044;-62
2023/01/22 04:32:10;;;;;;;4.05;2.38;;;1.50;99.90;;;;;;5029114;28;20130;-64
2023/01/22 04:34:36;;;;;;;2.90;1.73;;;1.40;99.90;;;;;;4994242;28;20096;-64
2023/01/22 04:37:01;;;;;;;5.90;2.65;;;1.40;99.90;;;;;;5010954;28;20764;-64
2023/01/22 04:39:28;;;;;;;9.75;3.47;;;1.40;99.90;;;;;;5029870;28;20086;-64
2023/01/22 04:41:53;;;;;;;8.50;3.33;;;1.40;99.90;;;;;;5029222;28;20044;-63
2023/01/22 04:44:19;;;;;;;6.57;3.10;;;1.40;99.90;;;;;;4995492;28;20369;-63
2023/01/22 04:46:45;;;;;;;3.15;2.22;;;1.40;99.90;;;;;;4993491;28;20292;-63
2023/01/22 04:49:10;;;;;;;7.53;3.00;;;1.30;99.90;;;;;;5004886;28;20037;-65
2023/01/22 04:51:36;;;;;;;4.88;2.85;;;1.30;99.90;;;;;;5011950;28;20426;-63
2023/01/22 04:54:01;;;;;;;6.72;3.58;;;1.30;99.90;;;;;;5029422;28;20290;-63
2023/01/22 04:56:27;;;;;;;6.28;3.72;;;1.30;99.90;;;;;;4995731;28;20033;-63
2023/01/22 04:58:53;;;;;;;5.25;3.33;;;1.30;99.90;;;;;;4995560;28;20523;-65
2023/01/22 05:01:19;;;;;;;8.13;3.97;;;1.20;99.90;;;;;;4993557;28;20167;-65
2023/01/22 05:03:44;;;;;;;4.40;3.17;;;1.20;99.90;;;;;;5029051;28;20127;-64
2023/01/22 05:06:10;;;;;;;6.00;4.20;;;1.20;99.90;;;;;;5027587;28;20075;-63
2023/01/22 05:08:36;;;;;;;7.63;3.08;;;1.20;99.90;;;;;;5029317;28;20533;-65
2023/01/22 05:11:02;;;;;;;4.72;2.55;;;1.10;99.90;;;;;;5030393;28;20163;-64
2023/01/22 05:13:28;;;;;;;6.65;4.13;;;1.10;99.90;;;;;;5009919;28;20054;-63
2023/01/22 05:15:53;;;;;;;7.75;4.57;;;1.10;99.90;;;;;;5011742;28;20544;-64
2023/01/22 05:18:19;;;;;;;7.13;3.38;;;1.10;99.90;;;;;;5010544;28;20127;-64
2023/01/22 05:20:45;;;;;;;4.47;2.63;;;1.10;99.90;;;;;;5010792;28;20037;-63
2023/01/22 05:23:10;;;;;;;7.15;3.97;;;1.10;99.90;;;;;;4977671;28;20186;-64
2023/01/22 05:25:36;;;;;;;4.95;3.05;;;1.10;99.90;;;;;;4994233;28;20539;-64
2023/01/22 05:28:02;;;;;;;4.18;3.15;;;1.10;99.90;;;;;;4972517;28;20939;-63
2023/01/22 05:30:47;;;;;;;6.68;3.58;;;1.00;99.90;;;;;;4994648;28;20044;-64
2023/01/22 05:33:13;;;;;;;8.10;5.38;;;1.00;99.90;;;;;;5029458;28;20033;-62
2023/01/22 05:35:38;;;;;;;8.35;5.60;;;1.00;99.90;;;;;;4996704;28;20052;-63
2023/01/22 05:38:04;;;;;;;7.40;5.32;;;1.00;99.90;;;;;;5031640;28;20091;-64
2023/01/22 05:40:30;;;;;;;8.57;6.22;;;1.00;99.90;;;;;;5014507;28;20103;-63
2023/01/22 05:42:56;;;;;;;7.65;4.82;;;1.00;1.00;;;;;;4982912;28;20576;-63
2023/01/22 05:45:22;;;;;;;6.88;5.25;;;0.90;99.90;;;;;;5032607;28;20044;-63
2023/01/22 05:47:52;;;;;;;6.63;5.15;;;0.90;99.90;;;;;;5031653;28;21414;-64
2023/01/22 05:50:18;;;;;;;8.55;5.57;;;0.90;99.90;;;;;;5013176;28;20187;-64
2023/01/22 05:52:44;;;;;;;10.50;6.57;;;0.90;1.00;;;;;;5014318;28;20048;-64
2023/01/22 05:55:10;;;;;;;6.22;5.13;;;0.90;1.00;;;;;;5013464;28;20754;-63
2023/01/22 05:57:36;;;;;;;8.52;5.95;;;0.90;1.00;;;;;;5010767;28;20045;-64
2023/01/22 06:00:04;;;;;;;6.68;5.35;;;0.90;1.00;;;;;;4980222;28;20596;-64
2023/01/22 06:02:29;;;;;;;6.78;5.50;;;0.90;99.90;;;;;;5012819;28;20548;-65
2023/01/22 06:04:55;;;;;;;9.52;6.72;;;0.90;1.00;;;;;;5015279;28;20498;-63
2023/01/22 06:07:21;;;;;;;7.05;5.55;;;0.90;1.00;;;;;;5034809;28;20205;-64
2023/01/22 06:09:47;;;;;;;10.85;7.03;;;0.90;1.00;;;;;;4999623;28;20045;-63
2023/01/22 06:12:14;;;;;;;6.20;5.13;;;0.80;1.00;;;;;;5015351;28;20558;-64
2023/01/22 06:14:41;;;;;;;8.23;6.15;;;0.80;1.00;;;;;;5012662;28;20461;-64
2023/01/22 06:17:06;;;;;;;7.57;5.80;;;0.90;99.90;;;;;;5034216;28;20048;-63
2023/01/22 06:19:32;;;;;;;8.18;5.55;;;0.80;99.90;;;;;;5017318;28;20541;-63
2023/01/22 06:21:58;;;;;;;7.60;5.38;;;0.80;1.00;;;;;;5034162;28;20398;-64
2023/01/22 06:24:23;;;;;;;7.20;5.95;;;0.80;1.00;;;;;;5034534;28;20048;-64
2023/01/22 06:26:49;;;;;;;6.10;5.50;;;0.70;99.90;;;;;;4998876;28;20276;-65
2023/01/22 06:29:15;;;;;;;6.25;5.63;;;0.80;1.00;;;;;;5033667;28;20144;-62
2023/01/22 06:31:41;;;;;;;7.45;5.38;;;0.80;1.00;;;;;;4998835;28;20503;-62
2023/01/22 06:34:07;;;;;;;9.57;6.18;;;0.70;1.00;;;;;;5034795;28;20041;-65
2023/01/22 06:36:33;;;;;;;9.45;7.45;;;0.80;1.00;;;;;;5033762;28;20057;-63
2023/01/22 06:38:59;;;;;;;9.55;7.13;;;0.70;1.00;;;;;;4996183;28;20550;-63
2023/01/22 06:41:25;;;;;;;10.13;7.93;;;0.80;1.00;;;;;;5012557;28;20048;-64
2023/01/22 06:43:51;;;;;;;9.43;8.45;;;0.80;1.00;;;;;;5012170;28;20346;-64
2023/01/22 06:46:17;;;;;;;7.57;5.50;;;0.70;1.00;;;;;;5010782;28;20112;-64
2023/01/22 06:48:42;;;;;;;10.27;7.47;;;0.70;1.00;;;;;;5030468;28;20055;-64
2023/01/22 06:51:11;;;;;;;9.85;6.25;;;0.70;1.00;;;;;;5013478;28;20835;-63
2023/01/22 06:53:38;;;;;;;10.40;7.70;;;0.70;1.00;;;;;;4998749;28;20359;-63
2023/01/22 06:56:04;;;;;;;7.10;4.97;;;0.70;1.00;;;;;;4999221;28;20040;-63
2023/01/22 06:58:30;;;;;;;7.80;4.63;;;0.70;1.00;;;;;;5033048;28;20106;-64
2023/01/22 07:01:04;;;;;;;7.22;6.53;;;0.70;1.00;;;;;;4984975;28;20041;-64
2023/01/22 07:03:29;;;;;;;9.07;8.18;;;0.70;1.00;;;;;;5034408;28;20230;-64
2023/01/22 07:06:01;;;;;;;11.77;8.23;;;0.80;1.00;;;;;;5012558;28;20056;-64
2023/01/22 07:08:28;;;;;;;12.85;8.30;;;0.80;1.00;;;;;;4995137;28;20496;-63
2023/01/22 07:10:54;;;;;;;11.38;8.23;;;0.70;1.00;;;;;;5034286;28;20033;-64
2023/01/22 07:13:20;;;;;;;6.78;4.25;;;0.80;1.00;;;;;;4998786;28;20075;-63
2023/01/22 07:15:46;;;;;;;10.57;8.38;;;0.80;1.00;;;;;;5033983;28;20049;-64
2023/01/22 07:18:13;;;;;;;12.07;8.40;;;0.70;1.00;;;;;;5015298;28;20045;-64
2023/01/22 07:20:41;;;;;;;7.10;5.25;;;0.80;1.00;;;;;;4979941;28;20045;-63
2023/01/22 07:23:07;;;;;;;7.90;6.57;;;0.70;1.00;;;;;;5014252;28;20033;-64
2023/01/22 07:25:33;;;;;;;9.23;7.00;;;0.70;1.00;;;;;;5032511;28;20037;-62
2023/01/22 07:28:04;;;;;;;6.25;4.28;;;0.70;1.00;;;;;;4999292;28;20049;-62
2023/01/22 07:30:29;;;;;;;9.30;6.18;;;0.70;1.00;;;;;;5017384;28;20040;-62
2023/01/22 07:33:02;;;;;;;7.80;6.38;;;0.70;1.00;;;;;;5016269;28;20040;-62
2023/01/22 07:35:29;;;;;;;10.20;7.20;;;0.70;1.00;;;;;;5014984;28;20087;-62
2023/01/22 07:37:56;;;;;;;9.88;6.95;;;0.70;1.00;;;;;;5015366;28;20053;-64
2023/01/22 07:40:23;;;;;;;9.00;6.03;;;0.70;1.00;;;;;;5013323;28;20053;-62
2023/01/22 07:42:50;;;;;;;8.32;5.32;;;0.70;1.00;;;;;;5016431;28;20071;-63
2023/01/22 07:45:18;;;;;;;6.97;5.90;;;0.70;1.00;;;;;;5015035;28;20097;-63
2023/01/22 07:47:53;;;;;;;7.80;4.35;;;0.60;1.00;;;;;;5016533;28;20037;-63
2023/01/22 07:50:20;;;;;;;9.18;6.70;;;0.70;1.00;;;;;;5014165;28;20060;-62
2023/01/22 07:52:47;;;;;;;10.05;7.38;;;0.70;1.00;;;;;;5012534;28;20055;-64
2023/01/22 07:55:13;;;;;;;9.27;6.10;;;0.70;1.00;;;;;;5011749;28;20314;-64
2023/01/22 07:57:39;;;;;;;10.25;6.28;;;0.70;1.00;;;;;;5010897;28;20044;-63
2023/01/22 08:00:05;;;;;;;9.80;7.07;;;0.70;1.00;;;;;;4979750;28;20048;-64
2023/01/22 08:02:31;;;;;;;8.73;6.13;;;0.70;1.00;;;;;;5010795;28;20118;-64
2023/01/22 08:04:56;;;;;;;8.43;5.55;;;0.70;1.00;;;;;;5011263;28;20187;-64
2023/01/22 08:07:22;;;;;;;8.88;6.63;;;0.70;1.00;;;;;;5002770;28;20053;-64
2023/01/22 08:09:48;;;;;;;12.98;6.32;;;0.70;1.00;;;;;;4995466;28;20491;-63
2023/01/22 08:12:14;;;;;;;8.07;5.95;;;0.70;1.00;;;;;;4978052;28;20033;-64
2023/01/22 08:14:39;;;;;;;9.60;6.82;;;0.60;1.00;;;;;;5010360;28;20036;-64
2023/01/22 08:17:05;;;;;;;8.52;6.38;;;0.70;1.00;;;;;;5028914;28;20411;-64
2023/01/22 08:19:31;;;;;;;9.10;6.50;;;0.70;1.00;;;;;;5027513;28;20387;-64
2023/01/22 08:21:57;;;;;;;8.85;5.70;;;0.70;1.00;;;;;;5029148;28;20510;-65
2023/01/22 08:24:22;;;;;;;8.13;6.13;;;0.70;1.00;;;;;;5027929;28;20036;-63
2023/01/22 08:26:48;;;;;;;9.38;6.43;;;0.70;1.00;;;;;;4996041;28;20063;-64
2023/01/22 08:29:14;;;;;;;6.80;5.75;;;0.70;1.00;;;;;;5011509;28;20094;-64
2023/01/22 08:31:40;;;;;;;9.70;7.35;;;0.70;1.00;;;;;;5029208;28;20073;-65
2023/01/22 08:34:05;;;;;;;9.70;6.85;;;0.70;1.00;;;;;;5028726;28;20037;-64
2023/01/22 08:36:31;;;;;;;10.30;6.70;;;0.70;1.00;;;;;;5010195;28;20061;-64
2023/01/22 08:38:57;;;;;;;10.55;7.15;;;0.80;1.00;;;;;;5028090;28;20407;-64
2023/01/22 08:41:23;;;;;;;6.72;5.47;;;0.80;1.00;;;;;;5028592;28;20037;-62
2023/01/22 08:43:51;;;;;;;10.02;7.03;;;0.80;1.00;;;;;;5009684;28;20037;-62
2023/01/22 08:46:17;;;;;;;7.55;6.40;;;0.80;1.00;;;;;;4991761;28;20041;-62
2023/01/22 08:48:43;;;;;;;8.45;5.75;;;0.90;1.00;;;;;;5027987;28;20044;-62
2023/01/22 08:51:09;;;;;;;10.18;7.07;;;1.00;1.00;;;;;;5028651;28;20043;-62
2023/01/22 08:53:35;;;;;;;10.50;7.88;;;1.10;1.00;;;;;;5029743;28;20998;-62
2023/01/22 08:56:01;;;;;;;6.55;5.32;;;1.10;1.00;;;;;;5011045;28;20048;-62
2023/01/22 08:58:26;;;;;;;8.68;6.63;;;1.00;1.00;;;;;;5010025;28;20056;-62
2023/01/22 09:00:53;;;;;;;7.63;6.18;;;1.00;1.00;;;;;;5009878;28;20769;-61
2023/01/22 09:03:22;;;;;;;7.05;5.65;;;1.00;1.00;;;;;;5027559;28;20408;-63
2023/01/22 09:05:49;;;;;;;9.02;7.63;;;1.00;1.00;;;;;;5030094;28;20063;-62
2023/01/22 09:08:16;;;;;;;11.50;7.72;;;1.00;1.00;;;;;;5033572;28;20536;-63
2023/01/22 09:10:42;;;;;;;10.40;8.02;;;0.90;1.00;;;;;;5038331;28;20059;-64
2023/01/22 09:13:09;;;;;;;11.30;8.35;;;0.90;1.00;;;;;;5018569;28;20399;-64
2023/01/22 09:15:35;;;;;;;8.75;6.47;;;0.90;1.00;;;;;;5034902;28;20304;-64
2023/01/22 09:18:01;;;;;;;9.70;7.32;;;1.00;1.00;;;;;;5033422;28;20036;-65
2023/01/22 09:20:27;;;;;;;9.23;7.78;;;1.00;1.00;;;;;;5013341;28;20048;-64
2023/01/22 09:22:53;;;;;;;10.52;7.38;;;1.00;1.00;;;;;;5013063;28;20526;-63
2023/01/22 09:25:19;;;;;;;10.18;7.45;;;1.10;1.00;;;;;;5016424;28;20079;-66
2023/01/22 09:27:45;;;;;;;9.10;7.10;;;1.10;1.00;;;;;;5032439;28;20248;-64
2023/01/22 09:30:13;;;;;;;13.52;8.93;;;1.20;1.00;;;;;;5014711;28;20048;-65
2023/01/22 09:32:39;;;;;;;9.82;7.85;;;1.20;1.00;;;;;;5012928;28;20607;-64
2023/01/22 09:35:07;;;;;;;9.65;7.90;;;1.20;1.00;;;;;;5031354;28;20549;-64
2023/01/22 09:37:33;;;;;;;9.75;6.90;;;1.30;1.00;;;;;;5009222;28;20546;-64
2023/01/22 09:39:58;;;;;;;9.10;7.68;;;1.40;1.00;;;;;;4995404;28;20045;-64
2023/01/22 09:42:32;;;;;;;8.75;7.68;;;1.30;1.00;;;;;;5007858;28;20037;-64
2023/01/22 09:45:08;;;;;;;8.82;7.90;;;1.40;1.00;;;;;;5007751;28;20041;-65
2023/01/22 09:47:50;;;;;;;10.52;8.27;;;1.50;1.00;;;;;;5008064;28;20049;-65
2023/01/22 09:50:22;;;;;;;9.15;8.25;;;1.50;1.00;;;;;;4994657;28;20079;-64
2023/01/22 09:52:52;;;;;;;8.13;7.33;;;1.50;1.00;;;;;;5008609;28;20757;-63
2023/01/22 09:55:23;;;;;;;9.23;7.20;;;1.60;1.00;;;;;;5007739;28;20040;-63
2023/01/22 09:57:53;;;;;;;12.10;8.10;;;1.60;99.90;;;;;;5011387;28;20714;-62
2023/01/22 10:00:39;;;;;;;9.20;7.03;;;1.60;99.90;;;;;;5026637;28;20045;-63
2023/01/22 10:03:22;;;;;;;7.55;6.85;;;1.60;99.90;;;;;;5011588;28;20047;-62
2023/01/22 10:05:55;;;;;;;10.02;7.50;;;1.60;99.90;;;;;;5013617;28;20253;-63
2023/01/22 10:08:30;;;;;;;8.75;7.30;;;1.50;99.90;;;;;;5014184;28;20149;-64
2023/01/22 10:10:59;;;;;;;8.95;6.97;;;1.50;99.90;;;;;;5011195;28;20794;-63
2023/01/22 10:13:32;;;;;;;10.10;6.97;;;1.50;1.00;;;;;;5009089;28;20045;-63
2023/01/22 10:15:58;;;;;;;8.00;6.30;;;1.50;1.00;;;;;;5008173;28;20038;-63
2023/01/22 10:18:46;;;;;;;8.50;7.60;;;1.50;1.00;;;;;;5008639;28;20092;-63
2023/01/22 10:21:25;;;;;;;10.70;7.85;;;1.50;99.90;;;;;;5009359;28;20067;-62
2023/01/22 10:23:51;;;;;;;7.68;6.93;;;1.50;99.90;;;;;;5009198;28;20041;-62
2023/01/22 10:26:48;;;;;;;9.95;7.32;;;1.60;1.00;;;;;;4991785;28;20092;-62
2023/01/22 10:29:30;;;;;;;8.98;7.97;;;1.70;1.00;;;;;;5005392;28;20049;-63
2023/01/22 10:32:19;;;;;;;8.90;7.68;;;1.70;1.00;;;;;;5010230;28;20056;-64
2023/01/22 10:35:02;;;;;;;11.05;7.80;;;1.70;1.00;;;;;;5009906;28;20041;-63
2023/01/22 10:37:28;;;;;;;8.20;6.38;;;1.80;99.90;;;;;;5023048;28;20053;-63
2023/01/22 10:39:58;;;;;;;12.23;7.70;;;1.80;1.00;;;;;;5010697;28;20106;-62
2023/01/22 10:42:27;;;;;;;11.18;7.65;;;1.80;99.90;;;;;;5031799;28;20724;-63
2023/01/22 10:45:14;;;;;;;10.73;8.05;;;1.80;99.90;;;;;;5011230;28;20037;-62
2023/01/22 10:47:40;;;;;;;8.43;7.43;;;1.80;99.90;;;;;;5030470;28;20723;-63
2023/01/22 10:50:13;;;;;;;9.15;7.65;;;1.80;1.00;;;;;;5030799;28;20049;-62
2023/01/22 10:52:48;;;;;;;11.55;7.70;;;1.90;99.90;;;;;;5032642;28;20433;-62
2023/01/22 10:55:25;;;;;;;9.70;7.68;;;1.90;99.90;;;;;;5013586;28;20135;-62
2023/01/22 10:58:01;;;;;;;11.25;7.95;;;2.00;99.90;;;;;;5030015;28;20045;-62
2023/01/22 11:00:30;;;;;;;10.52;7.97;;;2.00;1.00;;;;;;5012263;28;20039;-63
2023/01/22 11:02:56;;;;;;;8.77;6.82;;;2.10;1.00;;;;;;5013019;28;20588;-64
2023/01/22 11:05:25;;;;;;;10.60;7.50;;;2.30;99.90;;;;;;4996741;28;20128;-63
2023/01/22 11:08:00;;;;;;;10.48;7.18;;;2.40;99.90;;;;;;5029271;28;20052;-63
2023/01/22 11:11:06;;;;;;;8.88;7.38;;;2.50;99.90;;;;;;5029520;28;20055;-64
2023/01/22 11:13:50;;;;;;;7.75;6.88;;;2.60;99.90;;;;;;5008676;28;20041;-64
2023/01/22 11:16:19;;;;;;;7.22;6.47;;;2.60;99.90;;;;;;5010468;28;20037;-64
2023/01/22 11:18:51;;;;;;;9.68;6.75;;;2.50;99.90;;;;;;5010961;28;20407;-64
2023/01/22 11:21:34;;;;;;;9.60;7.18;;;2.60;99.90;;;;;;5011906;28;20869;-63
2023/01/22 11:24:14;;;;;;;10.05;7.10;;;2.60;99.90;;;;;;5010527;28;20109;-64
2023/01/22 11:27:14;;;;;;;9.90;6.40;;;2.60;99.90;;;;;;5030593;28;20055;-64
2023/01/22 11:29:59;;;;;;;8.18;6.93;;;2.50;99.90;;;;;;4996566;28;20128;-65
2023/01/22 11:32:39;;;;;;;11.20;7.18;;;2.50;99.90;;;;;;4997535;28;20037;-65
2023/01/22 11:35:05;;;;;;;8.90;6.80;;;2.50;99.90;;;;;;5013495;28;20041;-64
2023/01/22 11:38:19;;;;;;;8.95;7.28;;;2.50;99.90;;;;;;4995658;28;20171;-64
2023/01/22 11:40:59;;;;;;;9.85;7.00;;;2.50;99.90;;;;;;4979288;28;20082;-63
2023/01/22 11:43:44;;;;;;;13.40;7.10;;;2.60;99.90;;;;;;5031894;28;20033;-63
2023/01/22 11:46:19;;;;;;;9.98;6.65;;;2.60;99.90;;;;;;5011249;28;20063;-62
2023/01/22 11:49:07;;;;;;;9.38;7.03;;;2.50;99.90;;;;;;5011439;28;20041;-63
2023/01/22 11:51:46;;;;;;;6.22;5.18;;;2.50;99.90;;;;;;4995963;28;20033;-64
2023/01/22 11:54:18;;;;;;;8.27;6.47;;;2.50;99.90;;;;;;4996176;28;20177;-63
2023/01/22 11:57:10;;;;;;;9.10;6.25;;;2.50;99.90;;;;;;5033370;28;20037;-63
2023/01/22 11:59:57;;;;;;;8.93;6.20;;;2.50;99.90;;;;;;4999964;28;20444;-63
2023/01/22 12:03:04;;;;;;;8.50;6.70;;;2.60;99.90;;;;;;5031077;28;20029;-63
2023/01/22 12:05:52;;;;;;;10.63;7.00;;;2.60;99.90;;;;;;5014832;28;20091;-63
2023/01/22 12:08:24;;;;;;;7.18;6.35;;;2.60;99.90;;;;;;5013449;28;20176;-64
2023/01/22 12:10:56;;;;;;;8.03;6.40;;;2.60;99.90;;;;;;5031748;28;20177;-63
2023/01/22 12:13:37;;;;;;;10.27;6.50;;;2.60;99.90;;;;;;5014332;28;20037;-63
2023/01/22 12:16:25;;;;;;;6.97;6.20;;;2.60;99.90;;;;;;5032244;28;20397;-63
2023/01/22 12:19:09;;;;;;;10.60;6.72;;;2.60;99.90;;;;;;5014581;28;20076;-63
2023/01/22 12:21:56;;;;;;;9.20;6.97;;;2.50;99.90;;;;;;5013980;28;20033;-63
2023/01/22 12:24:25;;;;;;;9.55;7.13;;;2.50;99.90;;;;;;5031851;28;20398;-62
2023/01/22 12:27:16;;;;;;;6.82;4.80;;;2.60;1.00;;;;;;5014538;28;20145;-63
2023/01/22 12:29:54;;;;;;;8.60;7.10;;;2.50;99.90;;;;;;5003894;28;20199;-63
2023/01/22 12:32:21;;;;;;;9.85;6.70;;;2.50;99.90;;;;;;5033358;28;20040;-63
2023/01/22 12:34:57;;;;;;;8.48;7.15;;;2.60;1.00;;;;;;5032149;28;20116;-64
2023/01/22 12:37:27;;;;;;;8.73;6.65;;;2.60;99.90;;;;;;5031245;28;20438;-63
2023/01/22 12:40:04;;;;;;;9.40;6.95;;;2.50;1.00;;;;;;5015318;28;20131;-63
2023/01/22 12:42:36;;;;;;;13.32;7.47;;;2.60;1.00;;;;;;5012385;28;20055;-64
2023/01/22 12:45:19;;;;;;;10.98;7.03;;;2.60;1.00;;;;;;5031633;28;20384;-63
2023/01/22 12:47:45;;;;;;;11.88;7.15;;;2.60;1.00;;;;;;5028707;28;20392;-63
2023/01/22 12:50:19;;;;;;;9.48;6.82;;;2.60;1.00;;;;;;5010761;28;20704;-63
2023/01/22 12:52:56;;;;;;;10.38;6.38;;;2.60;1.00;;;;;;5013670;28;20121;-62
2023/01/22 12:55:37;;;;;;;9.57;6.90;;;2.60;1.00;;;;;;5028881;28;20167;-62
2023/01/22 12:58:03;;;;;;;9.65;5.25;;;2.60;1.00;;;;;;5028523;28;20110;-62
2023/01/22 13:00:30;;;;;;;11.80;6.57;;;2.50;1.00;;;;;;5008525;28;20081;-62
2023/01/22 13:02:57;;;;;;;8.70;6.40;;;2.50;1.00;;;;;;5010469;28;20049;-63
2023/01/22 13:05:25;;;;;;;10.18;6.78;;;2.60;1.00;;;;;;5011776;28;20045;-62
2023/01/22 13:08:20;;;;;;;14.52;6.28;;;2.50;1.00;;;;;;5011823;28;20469;-62
2023/01/22 13:11:01;;;;;;;10.02;6.72;;;2.50;1.00;;;;;;4983118;28;20705;-63
2023/01/22 13:13:55;;;;;;;12.02;5.95;;;2.50;1.00;;;;;;5027635;28;20102;-63
2023/01/22 13:16:31;;;;;;;9.55;5.78;;;2.50;1.00;;;;;;4986567;28;20258;-63